sensor_id;sensor_type;location;lat;lon;timestamp;P1;durP1;ratioP1;P2;durP2;ratioP2
33455;SDS011;19791;51.916;8.412;2023-06-26T00:48:44;13.63;;;11.20;;
33455;SDS011;19791;51.916;8.412;2023-06-26T00:51:13;13.55;;;11.90;;
33455;SDS011;19791;51.916;8.412;2023-06-26T00:53:39;11.90;;;10.45;;
33455;SDS011;19791;51.916;8.412;2023-06-26T00:56:05;14.45;;;11.15;;
33455;SDS011;19791;51.916;8.412;2023-06-26T00:58:31;11.80;;;9.88;;
33455;SDS011;19791;51.916;8.412;2023-06-26T01:00:57;13.15;;;11.38;;
33455;SDS011;19791;51.916;8.412;2023-06-26T01:03:23;14.13;;;11.00;;
33455;SDS011;19791;51.916;8.412;2023-06-26T01:05:51;11.60;;;10.40;;
33455;SDS011;19791;51.916;8.412;2023-06-26T01:08:20;13.82;;;10.73;;
33455;SDS011;19791;51.916;8.412;2023-06-26T01:14:23;10.82;;;9.80;;
33455;SDS011;19791;51.916;8.412;2023-06-26T01:16:49;12.68;;;10.88;;
33455;SDS011;19791;51.916;8.412;2023-06-26T01:19:21;13.02;;;10.73;;
33455;SDS011;19791;51.916;8.412;2023-06-26T01:21:55;13.80;;;10.23;;
33455;SDS011;19791;51.916;8.412;2023-06-26T01:24:42;15.45;;;12.15;;
33455;SDS011;19791;51.916;8.412;2023-06-26T01:27:18;14.77;;;10.68;;
33455;SDS011;19791;51.916;8.412;2023-06-26T01:29:47;12.90;;;10.65;;
33455;SDS011;19791;51.916;8.412;2023-06-26T01:32:14;12.32;;;10.35;;
33455;SDS011;19791;51.916;8.412;2023-06-26T01:34:41;15.07;;;11.95;;
33455;SDS011;19791;51.916;8.412;2023-06-26T01:37:08;12.18;;;10.13;;
33455;SDS011;19791;51.916;8.412;2023-06-26T01:39:34;17.17;;;11.63;;
33455;SDS011;19791;51.916;8.412;2023-06-26T01:41:59;12.68;;;10.65;;
33455;SDS011;19791;51.916;8.412;2023-06-26T01:44:29;13.88;;;11.18;;
33455;SDS011;19791;51.916;8.412;2023-06-26T01:47:03;13.50;;;10.43;;
33455;SDS011;19791;51.916;8.412;2023-06-26T01:55:09;13.77;;;11.60;;
33455;SDS011;19791;51.916;8.412;2023-06-26T01:57:36;12.50;;;9.50;;
33455;SDS011;19791;51.916;8.412;2023-06-26T02:00:04;13.15;;;10.57;;
33455;SDS011;19791;51.916;8.412;2023-06-26T02:02:33;13.68;;;10.60;;
33455;SDS011;19791;51.916;8.412;2023-06-26T02:04:59;10.95;;;9.82;;
33455;SDS011;19791;51.916;8.412;2023-06-26T02:07:25;14.88;;;10.60;;
33455;SDS011;19791;51.916;8.412;2023-06-26T02:09:51;13.32;;;10.48;;
33455;SDS011;19791;51.916;8.412;2023-06-26T02:12:16;12.32;;;10.05;;
33455;SDS011;19791;51.916;8.412;2023-06-26T02:14:42;12.43;;;10.52;;
33455;SDS011;19791;51.916;8.412;2023-06-26T02:17:08;12.68;;;10.48;;
33455;SDS011;19791;51.916;8.412;2023-06-26T02:19:33;12.68;;;10.07;;
33455;SDS011;19791;51.916;8.412;2023-06-26T02:21:59;13.38;;;10.70;;
33455;SDS011;19791;51.916;8.412;2023-06-26T02:24:25;12.85;;;10.10;;
33455;SDS011;19791;51.916;8.412;2023-06-26T02:26:54;12.13;;;10.30;;
33455;SDS011;19791;51.916;8.412;2023-06-26T02:29:21;13.60;;;10.45;;
33455;SDS011;19791;51.916;8.412;2023-06-26T02:31:47;10.40;;;9.02;;
33455;SDS011;19791;51.916;8.412;2023-06-26T02:34:12;12.25;;;9.85;;
33455;SDS011;19791;51.916;8.412;2023-06-26T02:36:38;15.07;;;10.52;;
33455;SDS011;19791;51.916;8.412;2023-06-26T02:39:04;12.10;;;10.68;;
33455;SDS011;19791;51.916;8.412;2023-06-26T02:41:30;12.05;;;10.63;;
33455;SDS011;19791;51.916;8.412;2023-06-26T02:43:55;11.52;;;10.00;;
33455;SDS011;19791;51.916;8.412;2023-06-26T02:46:21;13.85;;;10.82;;
33455;SDS011;19791;51.916;8.412;2023-06-26T02:48:47;11.77;;;10.57;;
33455;SDS011;19791;51.916;8.412;2023-06-26T02:51:12;13.70;;;10.02;;
33455;SDS011;19791;51.916;8.412;2023-06-26T02:53:38;14.50;;;9.70;;
33455;SDS011;19791;51.916;8.412;2023-06-26T02:56:04;13.10;;;10.68;;
33455;SDS011;19791;51.916;8.412;2023-06-26T02:58:30;12.00;;;10.25;;
33455;SDS011;19791;51.916;8.412;2023-06-26T03:03:51;13.30;;;9.95;;
33455;SDS011;19791;51.916;8.412;2023-06-26T03:06:17;17.27;;;10.52;;
33455;SDS011;19791;51.916;8.412;2023-06-26T03:08:43;12.23;;;9.75;;
33455;SDS011;19791;51.916;8.412;2023-06-26T03:11:09;12.07;;;10.80;;
33455;SDS011;19791;51.916;8.412;2023-06-26T03:13:35;17.20;;;10.77;;
33455;SDS011;19791;51.916;8.412;2023-06-26T03:16:01;13.63;;;10.82;;
33455;SDS011;19791;51.916;8.412;2023-06-26T03:18:27;11.38;;;10.18;;
33455;SDS011;19791;51.916;8.412;2023-06-26T03:20:54;12.48;;;10.73;;
33455;SDS011;19791;51.916;8.412;2023-06-26T03:23:21;11.32;;;10.10;;
33455;SDS011;19791;51.916;8.412;2023-06-26T03:25:47;11.45;;;9.55;;
33455;SDS011;19791;51.916;8.412;2023-06-26T03:28:13;14.55;;;10.65;;
33455;SDS011;19791;51.916;8.412;2023-06-26T03:30:39;13.27;;;10.23;;
33455;SDS011;19791;51.916;8.412;2023-06-26T03:33:04;12.93;;;10.95;;
33455;SDS011;19791;51.916;8.412;2023-06-26T03:35:30;14.73;;;10.80;;
33455;SDS011;19791;51.916;8.412;2023-06-26T03:37:56;13.52;;;9.95;;
33455;SDS011;19791;51.916;8.412;2023-06-26T03:40:23;11.82;;;10.45;;
33455;SDS011;19791;51.916;8.412;2023-06-26T03:42:49;15.65;;;11.32;;
33455;SDS011;19791;51.916;8.412;2023-06-26T03:45:14;14.45;;;11.52;;
33455;SDS011;19791;51.916;8.412;2023-06-26T03:47:40;15.82;;;9.95;;
33455;SDS011;19791;51.916;8.412;2023-06-26T03:50:06;13.55;;;10.02;;
33455;SDS011;19791;51.916;8.412;2023-06-26T03:52:32;13.13;;;9.90;;
33455;SDS011;19791;51.916;8.412;2023-06-26T03:54:58;13.48;;;10.32;;
33455;SDS011;19791;51.916;8.412;2023-06-26T03:57:24;15.02;;;10.27;;
33455;SDS011;19791;51.916;8.412;2023-06-26T03:59:50;15.95;;;10.05;;
33455;SDS011;19791;51.916;8.412;2023-06-26T04:02:16;12.07;;;10.55;;
33455;SDS011;19791;51.916;8.412;2023-06-26T04:04:42;11.63;;;10.40;;
33455;SDS011;19791;51.916;8.412;2023-06-26T04:07:07;11.38;;;8.88;;
33455;SDS011;19791;51.916;8.412;2023-06-26T04:09:33;11.35;;;10.20;;
33455;SDS011;19791;51.916;8.412;2023-06-26T04:11:58;12.38;;;10.45;;
33455;SDS011;19791;51.916;8.412;2023-06-26T04:14:24;12.70;;;10.90;;
33455;SDS011;19791;51.916;8.412;2023-06-26T04:16:50;12.60;;;10.45;;
33455;SDS011;19791;51.916;8.412;2023-06-26T04:19:15;14.45;;;10.50;;
33455;SDS011;19791;51.916;8.412;2023-06-26T04:21:41;13.93;;;10.90;;
33455;SDS011;19791;51.916;8.412;2023-06-26T04:24:07;11.80;;;10.57;;
33455;SDS011;19791;51.916;8.412;2023-06-26T04:26:34;12.70;;;10.65;;
33455;SDS011;19791;51.916;8.412;2023-06-26T04:28:59;12.73;;;10.70;;
33455;SDS011;19791;51.916;8.412;2023-06-26T04:31:25;11.13;;;9.80;;
33455;SDS011;19791;51.916;8.412;2023-06-26T04:33:51;14.38;;;10.38;;
33455;SDS011;19791;51.916;8.412;2023-06-26T04:36:19;13.10;;;10.88;;
33455;SDS011;19791;51.916;8.412;2023-06-26T04:38:45;11.85;;;10.30;;
33455;SDS011;19791;51.916;8.412;2023-06-26T04:41:13;15.02;;;10.38;;
33455;SDS011;19791;51.916;8.412;2023-06-26T04:43:39;14.63;;;9.90;;
33455;SDS011;19791;51.916;8.412;2023-06-26T04:46:05;16.88;;;10.60;;
33455;SDS011;19791;51.916;8.412;2023-06-26T04:48:31;11.77;;;10.00;;
33455;SDS011;19791;51.916;8.412;2023-06-26T04:50:57;10.68;;;9.55;;
33455;SDS011;19791;51.916;8.412;2023-06-26T04:53:24;10.10;;;9.05;;
33455;SDS011;19791;51.916;8.412;2023-06-26T04:55:50;10.57;;;9.23;;
33455;SDS011;19791;51.916;8.412;2023-06-26T04:58:16;12.32;;;9.88;;
33455;SDS011;19791;51.916;8.412;2023-06-26T05:00:42;10.30;;;9.20;;
33455;SDS011;19791;51.916;8.412;2023-06-26T05:03:12;11.55;;;8.88;;
33455;SDS011;19791;51.916;8.412;2023-06-26T05:05:39;11.25;;;9.02;;
33455;SDS011;19791;51.916;8.412;2023-06-26T05:10:43;12.77;;;8.55;;
33455;SDS011;19791;51.916;8.412;2023-06-26T05:13:10;14.27;;;9.27;;
33455;SDS011;19791;51.916;8.412;2023-06-26T05:15:36;18.77;;;8.90;;
33455;SDS011;19791;51.916;8.412;2023-06-26T05:18:02;13.02;;;9.65;;
33455;SDS011;19791;51.916;8.412;2023-06-26T05:20:28;14.02;;;8.02;;
33455;SDS011;19791;51.916;8.412;2023-06-26T05:22:53;12.95;;;8.48;;
33455;SDS011;19791;51.916;8.412;2023-06-26T05:25:19;10.30;;;7.65;;
33455;SDS011;19791;51.916;8.412;2023-06-26T05:27:46;12.13;;;7.70;;
33455;SDS011;19791;51.916;8.412;2023-06-26T05:30:13;10.32;;;7.72;;
33455;SDS011;19791;51.916;8.412;2023-06-26T05:32:39;11.57;;;8.55;;
33455;SDS011;19791;51.916;8.412;2023-06-26T05:35:06;10.48;;;7.72;;
33455;SDS011;19791;51.916;8.412;2023-06-26T05:37:41;8.88;;;7.47;;
33455;SDS011;19791;51.916;8.412;2023-06-26T05:40:08;14.50;;;7.70;;
33455;SDS011;19791;51.916;8.412;2023-06-26T05:42:34;10.27;;;7.22;;
33455;SDS011;19791;51.916;8.412;2023-06-26T05:47:49;11.68;;;7.38;;
33455;SDS011;19791;51.916;8.412;2023-06-26T05:50:18;10.65;;;7.47;;
33455;SDS011;19791;51.916;8.412;2023-06-26T05:55:28;8.52;;;6.82;;
33455;SDS011;19791;51.916;8.412;2023-06-26T06:00:24;8.27;;;6.65;;
33455;SDS011;19791;51.916;8.412;2023-06-26T06:02:51;11.27;;;7.70;;
33455;SDS011;19791;51.916;8.412;2023-06-26T06:05:19;12.73;;;7.38;;
33455;SDS011;19791;51.916;8.412;2023-06-26T06:07:45;11.43;;;8.35;;
33455;SDS011;19791;51.916;8.412;2023-06-26T06:10:12;9.48;;;6.97;;
33455;SDS011;19791;51.916;8.412;2023-06-26T06:12:37;13.40;;;8.52;;
33455;SDS011;19791;51.916;8.412;2023-06-26T06:15:03;9.60;;;7.25;;
33455;SDS011;19791;51.916;8.412;2023-06-26T06:17:30;10.40;;;7.30;;
33455;SDS011;19791;51.916;8.412;2023-06-26T06:19:56;10.68;;;8.52;;
33455;SDS011;19791;51.916;8.412;2023-06-26T06:22:21;11.02;;;8.18;;
33455;SDS011;19791;51.916;8.412;2023-06-26T06:24:48;11.30;;;7.72;;
33455;SDS011;19791;51.916;8.412;2023-06-26T06:27:15;12.00;;;8.45;;
33455;SDS011;19791;51.916;8.412;2023-06-26T06:29:40;11.93;;;8.57;;
33455;SDS011;19791;51.916;8.412;2023-06-26T06:32:06;12.45;;;8.40;;
33455;SDS011;19791;51.916;8.412;2023-06-26T06:34:32;23.27;;;9.07;;
33455;SDS011;19791;51.916;8.412;2023-06-26T06:36:58;9.65;;;8.18;;
33455;SDS011;19791;51.916;8.412;2023-06-26T06:39:24;9.70;;;8.38;;
33455;SDS011;19791;51.916;8.412;2023-06-26T06:41:49;10.73;;;8.95;;
33455;SDS011;19791;51.916;8.412;2023-06-26T06:44:15;17.02;;;8.77;;
33455;SDS011;19791;51.916;8.412;2023-06-26T06:46:40;9.95;;;8.63;;
33455;SDS011;19791;51.916;8.412;2023-06-26T06:49:08;11.43;;;8.63;;
33455;SDS011;19791;51.916;8.412;2023-06-26T06:51:34;10.63;;;8.50;;
33455;SDS011;19791;51.916;8.412;2023-06-26T06:54:00;14.05;;;9.88;;
33455;SDS011;19791;51.916;8.412;2023-06-26T06:56:28;12.68;;;8.40;;
33455;SDS011;19791;51.916;8.412;2023-06-26T06:58:54;17.27;;;10.13;;
33455;SDS011;19791;51.916;8.412;2023-06-26T07:01:19;11.00;;;7.90;;
33455;SDS011;19791;51.916;8.412;2023-06-26T07:03:48;16.08;;;8.85;;
33455;SDS011;19791;51.916;8.412;2023-06-26T07:06:13;14.93;;;10.38;;
33455;SDS011;19791;51.916;8.412;2023-06-26T07:08:39;11.52;;;8.73;;
33455;SDS011;19791;51.916;8.412;2023-06-26T07:11:05;12.60;;;10.02;;
33455;SDS011;19791;51.916;8.412;2023-06-26T07:13:31;15.05;;;10.68;;
33455;SDS011;19791;51.916;8.412;2023-06-26T07:15:57;9.35;;;8.40;;
33455;SDS011;19791;51.916;8.412;2023-06-26T07:18:22;18.75;;;10.82;;
33455;SDS011;19791;51.916;8.412;2023-06-26T07:20:48;14.68;;;9.93;;
33455;SDS011;19791;51.916;8.412;2023-06-26T08:18:30;13.55;;;9.63;;
33455;SDS011;19791;51.916;8.412;2023-06-26T08:20:55;12.00;;;8.90;;
33455;SDS011;19791;51.916;8.412;2023-06-26T08:23:21;14.57;;;9.90;;
33455;SDS011;19791;51.916;8.412;2023-06-26T08:25:47;15.55;;;9.18;;
33455;SDS011;19791;51.916;8.412;2023-06-26T08:28:13;13.38;;;10.15;;
33455;SDS011;19791;51.916;8.412;2023-06-26T08:30:39;14.50;;;7.88;;
33455;SDS011;19791;51.916;8.412;2023-06-26T08:33:05;16.30;;;9.35;;
33455;SDS011;19791;51.916;8.412;2023-06-26T08:35:35;19.30;;;8.88;;
33455;SDS011;19791;51.916;8.412;2023-06-26T08:38:01;13.60;;;7.97;;
33455;SDS011;19791;51.916;8.412;2023-06-26T08:40:26;16.02;;;8.68;;
33455;SDS011;19791;51.916;8.412;2023-06-26T08:42:53;14.80;;;8.43;;
33455;SDS011;19791;51.916;8.412;2023-06-26T08:45:19;16.23;;;8.00;;
33455;SDS011;19791;51.916;8.412;2023-06-26T08:47:45;15.68;;;8.93;;
33455;SDS011;19791;51.916;8.412;2023-06-26T08:50:16;15.50;;;8.60;;
33455;SDS011;19791;51.916;8.412;2023-06-26T08:55:33;18.33;;;11.90;;
33455;SDS011;19791;51.916;8.412;2023-06-26T08:58:14;11.23;;;9.55;;
33455;SDS011;19791;51.916;8.412;2023-06-26T09:00:40;15.35;;;9.10;;
33455;SDS011;19791;51.916;8.412;2023-06-26T09:03:15;12.60;;;9.25;;
33455;SDS011;19791;51.916;8.412;2023-06-26T09:08:46;15.85;;;9.20;;
33455;SDS011;19791;51.916;8.412;2023-06-26T09:11:15;13.90;;;7.47;;
33455;SDS011;19791;51.916;8.412;2023-06-26T09:16:25;14.30;;;7.97;;
33455;SDS011;19791;51.916;8.412;2023-06-26T09:18:52;11.48;;;7.25;;
33455;SDS011;19791;51.916;8.412;2023-06-26T09:21:24;10.20;;;7.35;;
33455;SDS011;19791;51.916;8.412;2023-06-26T09:23:50;12.65;;;8.25;;
33455;SDS011;19791;51.916;8.412;2023-06-26T09:26:16;12.23;;;8.05;;
33455;SDS011;19791;51.916;8.412;2023-06-26T09:28:42;13.10;;;7.95;;
33455;SDS011;19791;51.916;8.412;2023-06-26T09:31:08;15.35;;;7.88;;
33455;SDS011;19791;51.916;8.412;2023-06-26T09:33:35;14.43;;;8.10;;
33455;SDS011;19791;51.916;8.412;2023-06-26T09:36:06;13.10;;;7.25;;
33455;SDS011;19791;51.916;8.412;2023-06-26T09:38:33;10.85;;;6.25;;
33455;SDS011;19791;51.916;8.412;2023-06-26T09:41:00;8.57;;;6.00;;
33455;SDS011;19791;51.916;8.412;2023-06-26T09:43:26;13.57;;;7.07;;
33455;SDS011;19791;51.916;8.412;2023-06-26T09:45:52;16.63;;;7.47;;
33455;SDS011;19791;51.916;8.412;2023-06-26T09:48:19;9.88;;;6.18;;
33455;SDS011;19791;51.916;8.412;2023-06-26T09:50:45;14.43;;;8.18;;
33455;SDS011;19791;51.916;8.412;2023-06-26T09:53:11;13.48;;;6.70;;
33455;SDS011;19791;51.916;8.412;2023-06-26T09:55:38;12.43;;;6.97;;
33455;SDS011;19791;51.916;8.412;2023-06-26T09:58:06;12.25;;;7.00;;
33455;SDS011;19791;51.916;8.412;2023-06-26T10:00:33;15.95;;;8.35;;
33455;SDS011;19791;51.916;8.412;2023-06-26T10:02:59;13.98;;;8.00;;
33455;SDS011;19791;51.916;8.412;2023-06-26T10:05:25;13.05;;;6.10;;
33455;SDS011;19791;51.916;8.412;2023-06-26T10:07:52;12.13;;;7.70;;
33455;SDS011;19791;51.916;8.412;2023-06-26T10:10:18;14.73;;;6.65;;
33455;SDS011;19791;51.916;8.412;2023-06-26T10:12:45;12.20;;;5.97;;
33455;SDS011;19791;51.916;8.412;2023-06-26T10:15:14;13.55;;;7.43;;
33455;SDS011;19791;51.916;8.412;2023-06-26T10:17:42;14.73;;;7.07;;
33455;SDS011;19791;51.916;8.412;2023-06-26T10:20:10;14.18;;;7.25;;
33455;SDS011;19791;51.916;8.412;2023-06-26T10:22:44;7.95;;;5.55;;
33455;SDS011;19791;51.916;8.412;2023-06-26T10:25:12;10.52;;;6.28;;
33455;SDS011;19791;51.916;8.412;2023-06-26T10:27:43;11.02;;;5.80;;
33455;SDS011;19791;51.916;8.412;2023-06-26T10:30:16;12.23;;;6.43;;
33455;SDS011;19791;51.916;8.412;2023-06-26T10:32:46;8.93;;;5.22;;
33455;SDS011;19791;51.916;8.412;2023-06-26T10:35:12;11.88;;;5.72;;
33455;SDS011;19791;51.916;8.412;2023-06-26T10:40:11;11.90;;;5.45;;
33455;SDS011;19791;51.916;8.412;2023-06-26T10:42:38;8.50;;;5.85;;
33455;SDS011;19791;51.916;8.412;2023-06-26T10:47:48;9.65;;;5.45;;
33455;SDS011;19791;51.916;8.412;2023-06-26T10:50:25;11.00;;;5.30;;
33455;SDS011;19791;51.916;8.412;2023-06-26T10:55:51;9.45;;;5.13;;
33455;SDS011;19791;51.916;8.412;2023-06-26T10:58:40;14.07;;;5.28;;
33455;SDS011;19791;51.916;8.412;2023-06-26T11:01:23;7.78;;;4.90;;
33455;SDS011;19791;51.916;8.412;2023-06-26T11:03:59;11.25;;;4.90;;
33455;SDS011;19791;51.916;8.412;2023-06-26T11:06:32;9.43;;;5.35;;
33455;SDS011;19791;51.916;8.412;2023-06-26T11:14:20;9.35;;;3.92;;
33455;SDS011;19791;51.916;8.412;2023-06-26T11:16:46;6.80;;;4.00;;
33455;SDS011;19791;51.916;8.412;2023-06-26T11:19:13;13.90;;;3.78;;
33455;SDS011;19791;51.916;8.412;2023-06-26T11:21:39;7.78;;;3.88;;
33455;SDS011;19791;51.916;8.412;2023-06-26T11:24:07;14.45;;;4.72;;
33455;SDS011;19791;51.916;8.412;2023-06-26T11:26:40;5.72;;;3.65;;
33455;SDS011;19791;51.916;8.412;2023-06-26T11:29:07;7.38;;;3.67;;
33455;SDS011;19791;51.916;8.412;2023-06-26T11:31:37;6.00;;;3.92;;
33455;SDS011;19791;51.916;8.412;2023-06-26T11:34:05;8.13;;;3.78;;
33455;SDS011;19791;51.916;8.412;2023-06-26T11:36:36;5.50;;;3.50;;
33455;SDS011;19791;51.916;8.412;2023-06-26T11:39:06;6.40;;;3.92;;
33455;SDS011;19791;51.916;8.412;2023-06-26T11:41:32;9.40;;;4.30;;
33455;SDS011;19791;51.916;8.412;2023-06-26T11:44:03;6.97;;;3.75;;
33455;SDS011;19791;51.916;8.412;2023-06-26T11:46:31;8.55;;;3.22;;
33455;SDS011;19791;51.916;8.412;2023-06-26T11:48:59;4.05;;;3.47;;
33455;SDS011;19791;51.916;8.412;2023-06-26T11:51:26;4.43;;;3.42;;
33455;SDS011;19791;51.916;8.412;2023-06-26T11:53:53;6.13;;;3.50;;
33455;SDS011;19791;51.916;8.412;2023-06-26T11:56:19;4.57;;;3.50;;
33455;SDS011;19791;51.916;8.412;2023-06-26T11:58:57;12.77;;;3.75;;
33455;SDS011;19791;51.916;8.412;2023-06-26T12:01:43;5.43;;;3.25;;
33455;SDS011;19791;51.916;8.412;2023-06-26T12:04:12;11.95;;;4.40;;
33455;SDS011;19791;51.916;8.412;2023-06-26T12:06:42;5.07;;;2.85;;
33455;SDS011;19791;51.916;8.412;2023-06-26T12:09:11;4.63;;;2.80;;
33455;SDS011;19791;51.916;8.412;2023-06-26T12:11:40;4.18;;;2.97;;
33455;SDS011;19791;51.916;8.412;2023-06-26T12:14:07;7.00;;;2.65;;
33455;SDS011;19791;51.916;8.412;2023-06-26T12:16:34;2.78;;;2.40;;
33455;SDS011;19791;51.916;8.412;2023-06-26T12:19:01;3.80;;;2.90;;
33455;SDS011;19791;51.916;8.412;2023-06-26T12:21:29;8.48;;;3.88;;
33455;SDS011;19791;51.916;8.412;2023-06-26T12:24:00;6.35;;;4.18;;
33455;SDS011;19791;51.916;8.412;2023-06-26T12:26:27;6.00;;;3.13;;
33455;SDS011;19791;51.916;8.412;2023-06-26T12:29:00;9.82;;;6.97;;
33455;SDS011;19791;51.916;8.412;2023-06-26T12:31:29;8.45;;;5.00;;
33455;SDS011;19791;51.916;8.412;2023-06-26T12:33:56;6.47;;;4.80;;
33455;SDS011;19791;51.916;8.412;2023-06-26T12:36:22;8.45;;;6.25;;
33455;SDS011;19791;51.916;8.412;2023-06-26T12:38:48;9.85;;;5.60;;
33455;SDS011;19791;51.916;8.412;2023-06-26T12:41:14;5.55;;;3.05;;
33455;SDS011;19791;51.916;8.412;2023-06-26T12:43:41;5.25;;;2.75;;
33455;SDS011;19791;51.916;8.412;2023-06-26T12:46:07;7.63;;;2.55;;
33455;SDS011;19791;51.916;8.412;2023-06-26T12:48:39;9.85;;;3.05;;
33455;SDS011;19791;51.916;8.412;2023-06-26T12:51:15;4.70;;;2.72;;
33455;SDS011;19791;51.916;8.412;2023-06-26T12:53:42;4.45;;;2.92;;
33455;SDS011;19791;51.916;8.412;2023-06-26T12:56:08;8.75;;;2.65;;
33455;SDS011;19791;51.916;8.412;2023-06-26T12:58:34;4.60;;;2.60;;
33455;SDS011;19791;51.916;8.412;2023-06-26T13:01:03;5.35;;;4.07;;
33455;SDS011;19791;51.916;8.412;2023-06-26T13:03:30;6.30;;;3.10;;
33455;SDS011;19791;51.916;8.412;2023-06-26T13:05:56;4.90;;;2.95;;
33455;SDS011;19791;51.916;8.412;2023-06-26T13:08:22;4.57;;;2.47;;
33455;SDS011;19791;51.916;8.412;2023-06-26T13:10:48;3.40;;;2.95;;
33455;SDS011;19791;51.916;8.412;2023-06-26T13:13:28;3.33;;;2.90;;
33455;SDS011;19791;51.916;8.412;2023-06-26T13:15:54;5.40;;;3.05;;
33455;SDS011;19791;51.916;8.412;2023-06-26T13:18:19;3.60;;;2.85;;
33455;SDS011;19791;51.916;8.412;2023-06-26T13:20:45;4.63;;;3.42;;
33455;SDS011;19791;51.916;8.412;2023-06-26T13:23:11;7.97;;;3.10;;
33455;SDS011;19791;51.916;8.412;2023-06-26T13:25:37;6.05;;;3.33;;
33455;SDS011;19791;51.916;8.412;2023-06-26T13:28:03;4.05;;;2.50;;
33455;SDS011;19791;51.916;8.412;2023-06-26T13:30:28;5.40;;;2.55;;
33455;SDS011;19791;51.916;8.412;2023-06-26T13:32:54;3.92;;;2.75;;
33455;SDS011;19791;51.916;8.412;2023-06-26T13:35:20;6.80;;;3.00;;
33455;SDS011;19791;51.916;8.412;2023-06-26T13:37:46;9.98;;;3.15;;
33455;SDS011;19791;51.916;8.412;2023-06-26T13:40:12;2.60;;;2.10;;
33455;SDS011;19791;51.916;8.412;2023-06-26T13:42:38;8.57;;;3.13;;
33455;SDS011;19791;51.916;8.412;2023-06-26T13:45:04;4.63;;;3.05;;
33455;SDS011;19791;51.916;8.412;2023-06-26T13:47:30;4.60;;;2.90;;
33455;SDS011;19791;51.916;8.412;2023-06-26T13:49:56;4.68;;;2.75;;
33455;SDS011;19791;51.916;8.412;2023-06-26T13:52:22;4.82;;;2.22;;
33455;SDS011;19791;51.916;8.412;2023-06-26T13:54:48;3.97;;;2.25;;
33455;SDS011;19791;51.916;8.412;2023-06-26T13:57:14;5.43;;;2.80;;
33455;SDS011;19791;51.916;8.412;2023-06-26T13:59:40;4.18;;;2.63;;
33455;SDS011;19791;51.916;8.412;2023-06-26T14:02:06;3.67;;;2.30;;
33455;SDS011;19791;51.916;8.412;2023-06-26T14:04:32;3.00;;;2.65;;
33455;SDS011;19791;51.916;8.412;2023-06-26T14:06:58;3.85;;;1.92;;
33455;SDS011;19791;51.916;8.412;2023-06-26T14:09:24;5.05;;;3.13;;
33455;SDS011;19791;51.916;8.412;2023-06-26T14:11:50;3.72;;;1.95;;
33455;SDS011;19791;51.916;8.412;2023-06-26T14:14:15;3.28;;;1.83;;
33455;SDS011;19791;51.916;8.412;2023-06-26T14:16:41;2.92;;;2.03;;
33455;SDS011;19791;51.916;8.412;2023-06-26T14:19:07;2.42;;;2.00;;
33455;SDS011;19791;51.916;8.412;2023-06-26T14:21:40;5.43;;;2.25;;
33455;SDS011;19791;51.916;8.412;2023-06-26T14:24:06;4.88;;;1.92;;
33455;SDS011;19791;51.916;8.412;2023-06-26T14:26:32;4.35;;;2.53;;
33455;SDS011;19791;51.916;8.412;2023-06-26T14:28:59;6.35;;;2.90;;
33455;SDS011;19791;51.916;8.412;2023-06-26T14:31:25;7.00;;;1.60;;
33455;SDS011;19791;51.916;8.412;2023-06-26T14:33:51;8.35;;;2.55;;
33455;SDS011;19791;51.916;8.412;2023-06-26T14:36:17;6.70;;;2.03;;
33455;SDS011;19791;51.916;8.412;2023-06-26T14:38:44;3.70;;;1.73;;
33455;SDS011;19791;51.916;8.412;2023-06-26T14:41:10;4.72;;;1.70;;
33455;SDS011;19791;51.916;8.412;2023-06-26T14:43:36;8.35;;;5.97;;
33455;SDS011;19791;51.916;8.412;2023-06-26T14:46:03;7.78;;;3.63;;
33455;SDS011;19791;51.916;8.412;2023-06-26T14:48:29;10.57;;;4.40;;
33455;SDS011;19791;51.916;8.412;2023-06-26T14:50:54;4.20;;;2.47;;
33455;SDS011;19791;51.916;8.412;2023-06-26T14:53:20;5.45;;;2.10;;
33455;SDS011;19791;51.916;8.412;2023-06-26T14:55:46;4.18;;;2.05;;
33455;SDS011;19791;51.916;8.412;2023-06-26T14:58:11;4.25;;;3.22;;
33455;SDS011;19791;51.916;8.412;2023-06-26T15:00:37;8.35;;;6.57;;
33455;SDS011;19791;51.916;8.412;2023-06-26T15:03:03;5.47;;;1.52;;
33455;SDS011;19791;51.916;8.412;2023-06-26T15:05:28;3.55;;;1.42;;
33455;SDS011;19791;51.916;8.412;2023-06-26T15:07:54;3.78;;;1.55;;
33455;SDS011;19791;51.916;8.412;2023-06-26T15:10:19;2.85;;;1.65;;
33455;SDS011;19791;51.916;8.412;2023-06-26T15:12:46;3.80;;;1.55;;
33455;SDS011;19791;51.916;8.412;2023-06-26T15:15:12;4.38;;;1.80;;
33455;SDS011;19791;51.916;8.412;2023-06-26T15:17:38;6.38;;;1.80;;
33455;SDS011;19791;51.916;8.412;2023-06-26T15:20:04;2.30;;;1.25;;
33455;SDS011;19791;51.916;8.412;2023-06-26T15:22:30;4.10;;;2.00;;
33455;SDS011;19791;51.916;8.412;2023-06-26T15:25:12;7.03;;;2.28;;
33455;SDS011;19791;51.916;8.412;2023-06-26T15:27:37;5.32;;;3.70;;
33455;SDS011;19791;51.916;8.412;2023-06-26T15:30:03;7.22;;;2.80;;
33455;SDS011;19791;51.916;8.412;2023-06-26T15:32:34;2.97;;;1.48;;
33455;SDS011;19791;51.916;8.412;2023-06-26T15:34:59;7.53;;;4.90;;
33455;SDS011;19791;51.916;8.412;2023-06-26T15:37:25;4.80;;;2.25;;
33455;SDS011;19791;51.916;8.412;2023-06-26T15:39:51;2.25;;;1.33;;
33455;SDS011;19791;51.916;8.412;2023-06-26T15:42:16;4.45;;;2.03;;
33455;SDS011;19791;51.916;8.412;2023-06-26T15:44:42;4.80;;;1.83;;
33455;SDS011;19791;51.916;8.412;2023-06-26T15:47:09;2.58;;;1.65;;
33455;SDS011;19791;51.916;8.412;2023-06-26T15:49:34;2.38;;;1.58;;
33455;SDS011;19791;51.916;8.412;2023-06-26T15:52:00;4.45;;;1.65;;
33455;SDS011;19791;51.916;8.412;2023-06-26T15:54:26;4.95;;;1.70;;
33455;SDS011;19791;51.916;8.412;2023-06-26T15:59:27;10.07;;;2.28;;
33455;SDS011;19791;51.916;8.412;2023-06-26T16:01:52;3.50;;;1.75;;
33455;SDS011;19791;51.916;8.412;2023-06-26T16:04:19;8.52;;;1.92;;
33455;SDS011;19791;51.916;8.412;2023-06-26T16:06:47;3.78;;;2.13;;
33455;SDS011;19791;51.916;8.412;2023-06-26T16:09:13;5.20;;;1.70;;
33455;SDS011;19791;51.916;8.412;2023-06-26T16:11:41;3.92;;;2.08;;
33455;SDS011;19791;51.916;8.412;2023-06-26T16:14:07;5.72;;;1.52;;
33455;SDS011;19791;51.916;8.412;2023-06-26T16:16:33;2.55;;;1.52;;
33455;SDS011;19791;51.916;8.412;2023-06-26T16:18:59;5.88;;;1.67;;
33455;SDS011;19791;51.916;8.412;2023-06-26T16:21:26;5.63;;;1.70;;
33455;SDS011;19791;51.916;8.412;2023-06-26T16:23:53;3.58;;;0.95;;
33455;SDS011;19791;51.916;8.412;2023-06-26T16:26:20;2.05;;;1.20;;
33455;SDS011;19791;51.916;8.412;2023-06-26T16:28:47;4.53;;;1.60;;
33455;SDS011;19791;51.916;8.412;2023-06-26T16:31:16;3.60;;;1.65;;
33455;SDS011;19791;51.916;8.412;2023-06-26T16:33:42;2.40;;;1.45;;
33455;SDS011;19791;51.916;8.412;2023-06-26T16:36:08;4.32;;;1.20;;
